sensor_id;sensor_type;location;lat;lon;timestamp;pressure;altitude;pressure_sealevel;temperature;humidity
62057;BME280;48016;50.284;18.860;2023-07-31T00:01:30;97768.09;;;16.88;84.97
62057;BME280;48016;50.284;18.860;2023-07-31T00:03:57;97771.51;;;16.87;85.00
62057;BME280;48016;50.284;18.860;2023-07-31T00:06:23;97770.05;;;16.84;84.99
62057;BME280;48016;50.284;18.860;2023-07-31T00:08:50;97773.23;;;16.81;84.99
62057;BME280;48016;50.284;18.860;2023-07-31T00:11:16;97774.91;;;16.76;84.88
62057;BME280;48016;50.284;18.860;2023-07-31T00:13:43;97773.79;;;16.71;85.05
62057;BME280;48016;50.284;18.860;2023-07-31T00:16:10;97772.33;;;16.69;85.20
62057;BME280;48016;50.284;18.860;2023-07-31T00:18:36;97779.86;;;16.66;85.33
62057;BME280;48016;50.284;18.860;2023-07-31T00:21:03;97776.78;;;16.62;85.61
62057;BME280;48016;50.284;18.860;2023-07-31T00:23:29;97781.73;;;16.60;85.60
62057;BME280;48016;50.284;18.860;2023-07-31T00:25:56;97781.50;;;16.59;85.75
62057;BME280;48016;50.284;18.860;2023-07-31T00:28:22;97778.94;;;16.59;85.79
62057;BME280;48016;50.284;18.860;2023-07-31T00:30:49;97779.79;;;16.57;85.79
62057;BME280;48016;50.284;18.860;2023-07-31T00:33:16;97777.14;;;16.56;85.86
62057;BME280;48016;50.284;18.860;2023-07-31T00:35:42;97777.27;;;16.55;85.89
62057;BME280;48016;50.284;18.860;2023-07-31T00:38:09;97776.35;;;16.54;86.05
62057;BME280;48016;50.284;18.860;2023-07-31T00:40:36;97775.48;;;16.55;85.95
62057;BME280;48016;50.284;18.860;2023-07-31T00:43:03;97781.92;;;16.55;85.91
62057;BME280;48016;50.284;18.860;2023-07-31T00:45:30;97783.54;;;16.53;86.05
62057;BME280;48016;50.284;18.860;2023-07-31T00:47:57;97782.05;;;16.51;85.97
62057;BME280;48016;50.284;18.860;2023-07-31T00:50:25;97783.55;;;16.45;85.96
62057;BME280;48016;50.284;18.860;2023-07-31T00:52:51;97784.45;;;16.41;85.80
62057;BME280;48016;50.284;18.860;2023-07-31T00:55:18;97789.23;;;16.40;86.00
62057;BME280;48016;50.284;18.860;2023-07-31T00:57:45;97797.04;;;16.39;85.75
62057;BME280;48016;50.284;18.860;2023-07-31T01:00:12;97798.38;;;16.38;85.77
62057;BME280;48016;50.284;18.860;2023-07-31T01:02:38;97797.13;;;16.35;85.70
62057;BME280;48016;50.284;18.860;2023-07-31T01:05:05;97800.80;;;16.34;85.70
62057;BME280;48016;50.284;18.860;2023-07-31T01:07:46;97802.27;;;16.34;85.69
62057;BME280;48016;50.284;18.860;2023-07-31T01:10:20;97802.79;;;16.33;85.49
62057;BME280;48016;50.284;18.860;2023-07-31T01:12:48;97805.66;;;16.32;85.41
62057;BME280;48016;50.284;18.860;2023-07-31T01:15:15;97802.55;;;16.29;85.44
62057;BME280;48016;50.284;18.860;2023-07-31T01:17:43;97805.15;;;16.26;85.44
62057;BME280;48016;50.284;18.860;2023-07-31T01:20:13;97805.54;;;16.23;85.35
62057;BME280;48016;50.284;18.860;2023-07-31T01:23:15;97810.38;;;16.21;85.45
62057;BME280;48016;50.284;18.860;2023-07-31T01:28:35;97808.54;;;16.16;85.62
62057;BME280;48016;50.284;18.860;2023-07-31T01:31:07;97811.98;;;16.12;85.47
62057;BME280;48016;50.284;18.860;2023-07-31T01:33:36;97814.14;;;16.08;85.41
62057;BME280;48016;50.284;18.860;2023-07-31T01:36:04;97813.28;;;16.05;85.40
62057;BME280;48016;50.284;18.860;2023-07-31T01:38:30;97819.27;;;16.02;85.43
62057;BME280;48016;50.284;18.860;2023-07-31T01:40:57;97823.27;;;15.98;85.39
62057;BME280;48016;50.284;18.860;2023-07-31T01:43:23;97820.38;;;15.96;85.40
62057;BME280;48016;50.284;18.860;2023-07-31T01:45:50;97821.83;;;15.94;85.46
62057;BME280;48016;50.284;18.860;2023-07-31T01:48:17;97821.55;;;15.92;85.49
62057;BME280;48016;50.284;18.860;2023-07-31T01:50:43;97826.83;;;15.89;85.50
62057;BME280;48016;50.284;18.860;2023-07-31T01:53:10;97823.48;;;15.87;85.44
62057;BME280;48016;50.284;18.860;2023-07-31T01:55:38;97825.65;;;15.85;85.66
62057;BME280;48016;50.284;18.860;2023-07-31T01:58:05;97823.65;;;15.84;85.58
62057;BME280;48016;50.284;18.860;2023-07-31T02:00:31;97824.54;;;15.83;85.77
62057;BME280;48016;50.284;18.860;2023-07-31T02:02:59;97821.02;;;15.84;85.60
62057;BME280;48016;50.284;18.860;2023-07-31T02:05:26;97822.36;;;15.82;85.62
62057;BME280;48016;50.284;18.860;2023-07-31T02:07:52;97820.48;;;15.81;85.77
62057;BME280;48016;50.284;18.860;2023-07-31T02:10:19;97824.19;;;15.80;85.74
62057;BME280;48016;50.284;18.860;2023-07-31T02:12:46;97832.48;;;15.81;85.78
62057;BME280;48016;50.284;18.860;2023-07-31T02:15:12;97832.58;;;15.81;85.84
62057;BME280;48016;50.284;18.860;2023-07-31T02:17:39;97835.13;;;15.81;85.84
62057;BME280;48016;50.284;18.860;2023-07-31T02:20:06;97839.30;;;15.83;85.97
62057;BME280;48016;50.284;18.860;2023-07-31T02:22:32;97840.67;;;15.86;86.00
62057;BME280;48016;50.284;18.860;2023-07-31T02:24:59;97839.97;;;15.88;86.11
62057;BME280;48016;50.284;18.860;2023-07-31T02:27:26;97842.98;;;15.92;86.08
62057;BME280;48016;50.284;18.860;2023-07-31T02:29:54;97844.61;;;15.94;86.06
62057;BME280;48016;50.284;18.860;2023-07-31T02:32:21;97847.67;;;15.96;85.83
62057;BME280;48016;50.284;18.860;2023-07-31T02:34:47;97845.67;;;15.95;86.08
62057;BME280;48016;50.284;18.860;2023-07-31T02:37:14;97834.45;;;15.98;85.76
62057;BME280;48016;50.284;18.860;2023-07-31T02:39:40;97829.40;;;15.99;85.64
62057;BME280;48016;50.284;18.860;2023-07-31T02:42:07;97816.02;;;15.98;85.48
62057;BME280;48016;50.284;18.860;2023-07-31T02:44:34;97819.77;;;15.96;85.49
62057;BME280;48016;50.284;18.860;2023-07-31T02:47:00;97831.86;;;15.94;85.70
62057;BME280;48016;50.284;18.860;2023-07-31T02:49:27;97842.97;;;15.92;85.66
62057;BME280;48016;50.284;18.860;2023-07-31T02:51:53;97853.95;;;15.90;85.51
62057;BME280;48016;50.284;18.860;2023-07-31T02:54:20;97859.28;;;15.91;85.61
62057;BME280;48016;50.284;18.860;2023-07-31T02:56:48;97862.33;;;15.91;85.59
62057;BME280;48016;50.284;18.860;2023-07-31T02:59:14;97862.64;;;15.92;85.40
62057;BME280;48016;50.284;18.860;2023-07-31T03:01:41;97863.91;;;15.90;85.29
62057;BME280;48016;50.284;18.860;2023-07-31T03:04:07;97869.46;;;15.88;85.34
62057;BME280;48016;50.284;18.860;2023-07-31T03:06:34;97866.66;;;15.87;85.26
62057;BME280;48016;50.284;18.860;2023-07-31T03:09:00;97868.84;;;15.87;85.33
62057;BME280;48016;50.284;18.860;2023-07-31T03:11:27;97872.29;;;15.87;85.18
62057;BME280;48016;50.284;18.860;2023-07-31T03:13:54;97871.50;;;15.87;85.15
62057;BME280;48016;50.284;18.860;2023-07-31T03:16:20;97870.10;;;15.87;84.96
62057;BME280;48016;50.284;18.860;2023-07-31T03:18:47;97870.08;;;15.88;84.96
62057;BME280;48016;50.284;18.860;2023-07-31T03:21:14;97865.80;;;15.89;84.82
62057;BME280;48016;50.284;18.860;2023-07-31T03:23:40;97866.16;;;15.90;84.68
62057;BME280;48016;50.284;18.860;2023-07-31T03:26:08;97867.39;;;15.91;84.73
62057;BME280;48016;50.284;18.860;2023-07-31T03:28:35;97872.14;;;15.91;84.63
62057;BME280;48016;50.284;18.860;2023-07-31T03:31:02;97871.58;;;15.92;84.71
62057;BME280;48016;50.284;18.860;2023-07-31T03:33:29;97872.59;;;15.94;84.50
62057;BME280;48016;50.284;18.860;2023-07-31T03:35:55;97876.05;;;15.95;84.46
62057;BME280;48016;50.284;18.860;2023-07-31T03:38:22;97880.09;;;15.98;84.45
62057;BME280;48016;50.284;18.860;2023-07-31T03:40:48;97880.84;;;16.01;84.50
62057;BME280;48016;50.284;18.860;2023-07-31T03:43:15;97884.16;;;16.06;84.41
62057;BME280;48016;50.284;18.860;2023-07-31T03:45:42;97887.20;;;16.09;84.35
62057;BME280;48016;50.284;18.860;2023-07-31T03:48:08;97893.42;;;16.12;84.20
62057;BME280;48016;50.284;18.860;2023-07-31T03:50:35;97892.95;;;16.14;84.24
62057;BME280;48016;50.284;18.860;2023-07-31T03:53:02;97891.71;;;16.18;84.13
62057;BME280;48016;50.284;18.860;2023-07-31T03:55:28;97886.59;;;16.21;83.84
62057;BME280;48016;50.284;18.860;2023-07-31T03:57:55;97883.78;;;16.25;83.68
62057;BME280;48016;50.284;18.860;2023-07-31T04:00:21;97884.96;;;16.27;83.18
62057;BME280;48016;50.284;18.860;2023-07-31T04:02:49;97885.44;;;16.30;83.33
62057;BME280;48016;50.284;18.860;2023-07-31T04:05:15;97885.39;;;16.33;83.20
62057;BME280;48016;50.284;18.860;2023-07-31T04:07:42;97887.70;;;16.35;83.10
62057;BME280;48016;50.284;18.860;2023-07-31T04:10:09;97886.22;;;16.38;83.07
62057;BME280;48016;50.284;18.860;2023-07-31T04:12:35;97883.63;;;16.42;82.94
62057;BME280;48016;50.284;18.860;2023-07-31T04:15:02;97884.05;;;16.45;82.68
62057;BME280;48016;50.284;18.860;2023-07-31T04:17:29;97882.58;;;16.51;82.57
62057;BME280;48016;50.284;18.860;2023-07-31T04:19:55;97886.48;;;16.55;82.18
62057;BME280;48016;50.284;18.860;2023-07-31T04:22:22;97882.64;;;16.59;81.91
62057;BME280;48016;50.284;18.860;2023-07-31T04:24:48;97883.60;;;16.62;81.84
62057;BME280;48016;50.284;18.860;2023-07-31T04:27:15;97886.07;;;16.67;81.56
62057;BME280;48016;50.284;18.860;2023-07-31T04:29:42;97883.48;;;16.71;81.21
62057;BME280;48016;50.284;18.860;2023-07-31T04:32:08;97882.40;;;16.77;81.20
62057;BME280;48016;50.284;18.860;2023-07-31T04:34:35;97883.36;;;16.85;80.79
62057;BME280;48016;50.284;18.860;2023-07-31T04:37:02;97888.10;;;16.94;80.01
62057;BME280;48016;50.284;18.860;2023-07-31T04:39:28;97893.63;;;16.99;79.80
62057;BME280;48016;50.284;18.860;2023-07-31T04:41:55;97897.14;;;17.07;79.86
62057;BME280;48016;50.284;18.860;2023-07-31T04:44:21;97896.21;;;17.18;79.43
62057;BME280;48016;50.284;18.860;2023-07-31T04:46:48;97896.54;;;17.27;79.22
62057;BME280;48016;50.284;18.860;2023-07-31T04:49:14;97898.15;;;17.35;79.04
62057;BME280;48016;50.284;18.860;2023-07-31T04:51:41;97898.36;;;17.45;78.88
62057;BME280;48016;50.284;18.860;2023-07-31T04:54:07;97901.34;;;17.56;78.64
62057;BME280;48016;50.284;18.860;2023-07-31T04:56:34;97906.30;;;17.70;78.25
62057;BME280;48016;50.284;18.860;2023-07-31T04:59:01;97902.73;;;17.79;77.93
62057;BME280;48016;50.284;18.860;2023-07-31T05:01:27;97901.79;;;17.88;77.78
62057;BME280;48016;50.284;18.860;2023-07-31T05:03:54;97899.52;;;17.97;77.22
62057;BME280;48016;50.284;18.860;2023-07-31T05:06:20;97901.79;;;18.04;76.98
62057;BME280;48016;50.284;18.860;2023-07-31T05:08:47;97902.23;;;18.15;76.51
62057;BME280;48016;50.284;18.860;2023-07-31T05:11:13;97901.23;;;18.28;76.27
62057;BME280;48016;50.284;18.860;2023-07-31T05:13:40;97903.23;;;18.54;75.89
62057;BME280;48016;50.284;18.860;2023-07-31T05:16:07;97898.91;;;18.83;75.64
62057;BME280;48016;50.284;18.860;2023-07-31T05:18:33;97901.10;;;18.99;74.86
62057;BME280;48016;50.284;18.860;2023-07-31T05:21:00;97904.13;;;19.14;74.16
62057;BME280;48016;50.284;18.860;2023-07-31T05:23:26;97905.65;;;19.30;73.80
62057;BME280;48016;50.284;18.860;2023-07-31T05:25:53;97901.98;;;19.46;73.36
62057;BME280;48016;50.284;18.860;2023-07-31T05:28:21;97905.10;;;19.56;72.95
62057;BME280;48016;50.284;18.860;2023-07-31T05:30:47;97906.90;;;19.68;72.45
62057;BME280;48016;50.284;18.860;2023-07-31T05:33:14;97909.91;;;19.86;71.75
62057;BME280;48016;50.284;18.860;2023-07-31T05:35:40;97905.83;;;20.11;71.23
62057;BME280;48016;50.284;18.860;2023-07-31T05:38:07;97912.39;;;20.28;70.71
62057;BME280;48016;50.284;18.860;2023-07-31T05:40:34;97913.91;;;20.60;70.53
62057;BME280;48016;50.284;18.860;2023-07-31T05:43:00;97909.93;;;20.94;69.59
62057;BME280;48016;50.284;18.860;2023-07-31T05:45:27;97911.63;;;21.17;68.61
62057;BME280;48016;50.284;18.860;2023-07-31T05:47:53;97908.78;;;21.56;67.31
62057;BME280;48016;50.284;18.860;2023-07-31T05:50:20;97907.19;;;21.92;66.30
62057;BME280;48016;50.284;18.860;2023-07-31T05:52:46;97905.10;;;22.17;64.89
62057;BME280;48016;50.284;18.860;2023-07-31T05:55:13;97908.65;;;22.18;64.12
62057;BME280;48016;50.284;18.860;2023-07-31T05:57:39;97904.71;;;22.16;64.48
62057;BME280;48016;50.284;18.860;2023-07-31T06:00:06;97905.38;;;22.10;63.65
62057;BME280;48016;50.284;18.860;2023-07-31T06:02:33;97910.44;;;22.17;63.07
62057;BME280;48016;50.284;18.860;2023-07-31T06:05:04;97907.31;;;22.31;62.37
62057;BME280;48016;50.284;18.860;2023-07-31T06:07:32;97911.20;;;22.58;62.14
62057;BME280;48016;50.284;18.860;2023-07-31T06:09:58;97915.06;;;22.75;61.06
62057;BME280;48016;50.284;18.860;2023-07-31T06:12:32;97920.63;;;22.75;60.98
62057;BME280;48016;50.284;18.860;2023-07-31T06:14:59;97918.39;;;22.64;60.16
62057;BME280;48016;50.284;18.860;2023-07-31T06:17:26;97917.97;;;22.53;59.20
62057;BME280;48016;50.284;18.860;2023-07-31T06:19:52;97918.52;;;22.53;59.27
62057;BME280;48016;50.284;18.860;2023-07-31T06:22:19;97916.15;;;22.82;58.87
62057;BME280;48016;50.284;18.860;2023-07-31T06:24:46;97910.52;;;23.15;58.84
62057;BME280;48016;50.284;18.860;2023-07-31T06:27:13;97906.42;;;23.47;58.36
62057;BME280;48016;50.284;18.860;2023-07-31T06:29:39;97910.32;;;23.72;57.55
62057;BME280;48016;50.284;18.860;2023-07-31T06:32:06;97907.31;;;23.98;56.42
62057;BME280;48016;50.284;18.860;2023-07-31T06:34:33;97908.14;;;24.19;57.05
62057;BME280;48016;50.284;18.860;2023-07-31T06:36:59;97912.84;;;24.36;55.96
62057;BME280;48016;50.284;18.860;2023-07-31T06:39:26;97908.56;;;24.60;55.56
62057;BME280;48016;50.284;18.860;2023-07-31T06:41:52;97908.18;;;24.86;54.15
62057;BME280;48016;50.284;18.860;2023-07-31T06:44:19;97907.05;;;25.15;53.23
62057;BME280;48016;50.284;18.860;2023-07-31T06:46:45;97899.76;;;25.46;53.07
62057;BME280;48016;50.284;18.860;2023-07-31T06:49:12;97894.71;;;25.74;52.79
62057;BME280;48016;50.284;18.860;2023-07-31T06:51:38;97900.31;;;25.96;52.20
62057;BME280;48016;50.284;18.860;2023-07-31T06:54:05;97900.52;;;26.10;50.97
62057;BME280;48016;50.284;18.860;2023-07-31T06:56:31;97902.55;;;26.18;50.21
62057;BME280;48016;50.284;18.860;2023-07-31T06:58:58;97903.70;;;26.34;50.29
62057;BME280;48016;50.284;18.860;2023-07-31T07:01:25;97903.39;;;26.51;50.26
62057;BME280;48016;50.284;18.860;2023-07-31T07:03:52;97904.98;;;26.69;50.39
62057;BME280;48016;50.284;18.860;2023-07-31T07:06:18;97908.95;;;26.80;49.27
62057;BME280;48016;50.284;18.860;2023-07-31T07:08:45;97907.95;;;26.77;48.50
62057;BME280;48016;50.284;18.860;2023-07-31T07:11:12;97907.03;;;26.79;48.78
62057;BME280;48016;50.284;18.860;2023-07-31T07:13:38;97907.36;;;26.95;48.33
62057;BME280;48016;50.284;18.860;2023-07-31T07:16:05;97905.73;;;27.09;47.29
62057;BME280;48016;50.284;18.860;2023-07-31T07:18:31;97908.11;;;27.23;47.27
62057;BME280;48016;50.284;18.860;2023-07-31T07:20:58;97904.92;;;27.39;46.86
62057;BME280;48016;50.284;18.860;2023-07-31T07:23:25;97903.56;;;27.49;46.61
62057;BME280;48016;50.284;18.860;2023-07-31T07:25:51;97907.48;;;27.58;46.95
62057;BME280;48016;50.284;18.860;2023-07-31T07:28:18;97904.56;;;27.60;46.64
62057;BME280;48016;50.284;18.860;2023-07-31T07:30:44;97910.42;;;27.52;47.11
62057;BME280;48016;50.284;18.860;2023-07-31T07:33:11;97907.30;;;27.44;46.66
62057;BME280;48016;50.284;18.860;2023-07-31T07:35:38;97904.73;;;27.37;45.90
62057;BME280;48016;50.284;18.860;2023-07-31T07:38:05;97905.40;;;27.39;46.66
62057;BME280;48016;50.284;18.860;2023-07-31T07:40:31;97905.56;;;27.45;46.01
62057;BME280;48016;50.284;18.860;2023-07-31T07:42:58;97910.17;;;27.40;45.75
62057;BME280;48016;50.284;18.860;2023-07-31T07:45:26;97906.92;;;27.45;45.69
62057;BME280;48016;50.284;18.860;2023-07-31T07:47:53;97904.74;;;27.49;45.22
62057;BME280;48016;50.284;18.860;2023-07-31T07:50:19;97906.20;;;27.45;45.42
62057;BME280;48016;50.284;18.860;2023-07-31T07:52:46;97904.73;;;27.32;44.83
62057;BME280;48016;50.284;18.860;2023-07-31T07:55:13;97905.27;;;27.30;44.68
62057;BME280;48016;50.284;18.860;2023-07-31T07:57:39;97906.22;;;27.23;45.48
62057;BME280;48016;50.284;18.860;2023-07-31T08:00:06;97902.42;;;27.09;45.67
62057;BME280;48016;50.284;18.860;2023-07-31T08:02:33;97899.84;;;26.91;45.56
62057;BME280;48016;50.284;18.860;2023-07-31T08:05:00;97904.40;;;26.78;46.19
62057;BME280;48016;50.284;18.860;2023-07-31T08:07:26;97906.39;;;26.69;46.38
62057;BME280;48016;50.284;18.860;2023-07-31T08:09:53;97912.48;;;26.64;46.74
62057;BME280;48016;50.284;18.860;2023-07-31T08:12:20;97912.47;;;26.49;46.30
62057;BME280;48016;50.284;18.860;2023-07-31T08:14:46;97911.67;;;26.24;46.32
62057;BME280;48016;50.284;18.860;2023-07-31T08:17:13;97914.95;;;26.30;47.12
62057;BME280;48016;50.284;18.860;2023-07-31T08:19:39;97912.02;;;26.43;46.99
62057;BME280;48016;50.284;18.860;2023-07-31T08:22:06;97915.16;;;26.42;46.47
62057;BME280;48016;50.284;18.860;2023-07-31T08:24:32;97914.64;;;26.38;46.54
62057;BME280;48016;50.284;18.860;2023-07-31T08:26:59;97913.06;;;26.44;46.61
62057;BME280;48016;50.284;18.860;2023-07-31T08:29:26;97912.36;;;26.52;46.74
62057;BME280;48016;50.284;18.860;2023-07-31T08:31:52;97912.91;;;26.61;46.26
62057;BME280;48016;50.284;18.860;2023-07-31T08:34:19;97911.33;;;26.66;45.81
62057;BME280;48016;50.284;18.860;2023-07-31T08:36:45;97909.64;;;26.70;45.65
62057;BME280;48016;50.284;18.860;2023-07-31T08:39:12;97913.30;;;26.75;45.76
62057;BME280;48016;50.284;18.860;2023-07-31T08:41:38;97913.27;;;26.83;45.94
62057;BME280;48016;50.284;18.860;2023-07-31T08:44:10;97909.65;;;26.90;45.93
62057;BME280;48016;50.284;18.860;2023-07-31T08:46:37;97907.73;;;26.95;45.22
62057;BME280;48016;50.284;18.860;2023-07-31T08:49:05;97907.33;;;26.94;44.30
62057;BME280;48016;50.284;18.860;2023-07-31T08:51:35;97906.90;;;26.86;44.82
62057;BME280;48016;50.284;18.860;2023-07-31T08:54:02;97909.09;;;26.64;44.50
62057;BME280;48016;50.284;18.860;2023-07-31T08:56:32;97911.50;;;26.49;44.94
62057;BME280;48016;50.284;18.860;2023-07-31T08:59:01;97910.27;;;26.55;45.02
62057;BME280;48016;50.284;18.860;2023-07-31T09:01:30;97905.73;;;26.68;45.12
62057;BME280;48016;50.284;18.860;2023-07-31T09:04:01;97904.66;;;26.84;45.60
62057;BME280;48016;50.284;18.860;2023-07-31T09:06:28;97900.11;;;26.92;44.52
62057;BME280;48016;50.284;18.860;2023-07-31T09:08:56;97899.83;;;26.74;43.91
62057;BME280;48016;50.284;18.860;2023-07-31T09:11:24;97902.49;;;26.45;44.29
62057;BME280;48016;50.284;18.860;2023-07-31T09:13:52;97901.93;;;26.15;44.41
62057;BME280;48016;50.284;18.860;2023-07-31T09:16:19;97902.61;;;25.93;45.02
62057;BME280;48016;50.284;18.860;2023-07-31T09:18:54;97899.66;;;25.76;45.06
62057;BME280;48016;50.284;18.860;2023-07-31T09:21:23;97897.10;;;25.90;45.56
62057;BME280;48016;50.284;18.860;2023-07-31T09:23:50;97894.59;;;26.07;45.00
62057;BME280;48016;50.284;18.860;2023-07-31T09:26:34;97888.16;;;26.14;44.92
62057;BME280;48016;50.284;18.860;2023-07-31T09:29:04;97888.16;;;26.23;44.63
62057;BME280;48016;50.284;18.860;2023-07-31T09:31:41;97888.45;;;26.31;45.50
62057;BME280;48016;50.284;18.860;2023-07-31T09:34:08;97890.33;;;26.43;45.30
62057;BME280;48016;50.284;18.860;2023-07-31T09:37:01;97888.15;;;26.41;44.89
62057;BME280;48016;50.284;18.860;2023-07-31T09:39:29;97882.15;;;26.38;43.46
62057;BME280;48016;50.284;18.860;2023-07-31T09:41:56;97884.23;;;26.38;43.24
62057;BME280;48016;50.284;18.860;2023-07-31T09:44:39;97884.10;;;26.45;44.22
62057;BME280;48016;50.284;18.860;2023-07-31T09:47:21;97882.58;;;26.62;44.49
62057;BME280;48016;50.284;18.860;2023-07-31T09:49:50;97882.92;;;26.78;44.16
62057;BME280;48016;50.284;18.860;2023-07-31T09:52:16;97882.05;;;26.89;43.16
62057;BME280;48016;50.284;18.860;2023-07-31T09:54:43;97882.69;;;27.05;43.09
62057;BME280;48016;50.284;18.860;2023-07-31T09:57:10;97875.68;;;27.23;43.01
62057;BME280;48016;50.284;18.860;2023-07-31T09:59:38;97880.77;;;27.35;42.41
62057;BME280;48016;50.284;18.860;2023-07-31T10:02:04;97877.17;;;27.52;41.53
62057;BME280;48016;50.284;18.860;2023-07-31T10:04:34;97869.43;;;27.61;41.17
62057;BME280;48016;50.284;18.860;2023-07-31T10:07:03;97873.98;;;27.70;41.45
62057;BME280;48016;50.284;18.860;2023-07-31T10:09:31;97875.11;;;27.77;41.33
62057;BME280;48016;50.284;18.860;2023-07-31T10:12:02;97869.91;;;27.61;40.71
62057;BME280;48016;50.284;18.860;2023-07-31T10:14:32;97865.27;;;27.44;40.57
62057;BME280;48016;50.284;18.860;2023-07-31T10:17:00;97866.45;;;27.32;40.29
62057;BME280;48016;50.284;18.860;2023-07-31T10:19:29;97859.70;;;27.33;40.19
62057;BME280;48016;50.284;18.860;2023-07-31T10:21:56;97851.05;;;27.44;40.71
62057;BME280;48016;50.284;18.860;2023-07-31T10:24:25;97844.66;;;27.59;40.53
62057;BME280;48016;50.284;18.860;2023-07-31T10:26:53;97838.17;;;27.67;39.42
62057;BME280;48016;50.284;18.860;2023-07-31T10:29:22;97837.88;;;27.57;39.59
62057;BME280;48016;50.284;18.860;2023-07-31T10:31:51;97836.48;;;27.53;39.78
62057;BME280;48016;50.284;18.860;2023-07-31T10:34:18;97836.76;;;27.62;39.97
62057;BME280;48016;50.284;18.860;2023-07-31T10:36:45;97836.04;;;27.68;39.96
62057;BME280;48016;50.284;18.860;2023-07-31T10:39:36;97833.90;;;27.79;40.00
62057;BME280;48016;50.284;18.860;2023-07-31T10:42:13;97833.94;;;27.91;39.72
62057;BME280;48016;50.284;18.860;2023-07-31T10:44:44;97827.86;;;27.95;39.19
62057;BME280;48016;50.284;18.860;2023-07-31T10:47:14;97828.83;;;27.75;38.64
62057;BME280;48016;50.284;18.860;2023-07-31T10:49:44;97829.27;;;27.45;38.75
62057;BME280;48016;50.284;18.860;2023-07-31T10:52:13;97825.73;;;27.24;39.01
62057;BME280;48016;50.284;18.860;2023-07-31T10:54:40;97826.27;;;26.99;39.39
62057;BME280;48016;50.284;18.860;2023-07-31T10:57:19;97829.23;;;26.75;39.59
62057;BME280;48016;50.284;18.860;2023-07-31T10:59:47;97825.11;;;26.63;40.10
62057;BME280;48016;50.284;18.860;2023-07-31T11:02:40;97826.96;;;26.65;40.24
62057;BME280;48016;50.284;18.860;2023-07-31T11:05:08;97826.17;;;26.71;40.14
62057;BME280;48016;50.284;18.860;2023-07-31T11:07:48;97822.25;;;26.74;39.97
62057;BME280;48016;50.284;18.860;2023-07-31T11:10:19;97820.43;;;26.74;40.08
62057;BME280;48016;50.284;18.860;2023-07-31T11:12:45;97819.64;;;26.74;40.08
62057;BME280;48016;50.284;18.860;2023-07-31T11:15:13;97816.91;;;26.77;40.25
62057;BME280;48016;50.284;18.860;2023-07-31T11:17:39;97813.61;;;26.74;39.85
62057;BME280;48016;50.284;18.860;2023-07-31T11:20:06;97811.45;;;26.66;40.03
62057;BME280;48016;50.284;18.860;2023-07-31T11:22:36;97804.38;;;26.71;40.02
62057;BME280;48016;50.284;18.860;2023-07-31T11:25:03;97802.86;;;26.69;39.79
62057;BME280;48016;50.284;18.860;2023-07-31T11:27:30;97797.66;;;26.67;40.13
62057;BME280;48016;50.284;18.860;2023-07-31T11:30:01;97790.84;;;26.66;39.99
62057;BME280;48016;50.284;18.860;2023-07-31T11:32:28;97790.20;;;26.60;40.00
62057;BME280;48016;50.284;18.860;2023-07-31T11:34:55;97791.77;;;26.53;39.80
62057;BME280;48016;50.284;18.860;2023-07-31T11:37:22;97796.30;;;26.49;39.61
62057;BME280;48016;50.284;18.860;2023-07-31T11:40:01;97794.16;;;26.49;39.73
62057;BME280;48016;50.284;18.860;2023-07-31T11:42:28;97788.58;;;26.44;39.45
62057;BME280;48016;50.284;18.860;2023-07-31T11:44:55;97792.55;;;26.24;39.19
62057;BME280;48016;50.284;18.860;2023-07-31T11:47:21;97788.29;;;26.10;39.12
62057;BME280;48016;50.284;18.860;2023-07-31T11:49:49;97787.41;;;26.06;39.38
62057;BME280;48016;50.284;18.860;2023-07-31T11:52:15;97790.86;;;26.04;39.43
62057;BME280;48016;50.284;18.860;2023-07-31T11:54:43;97786.85;;;26.00;39.65
62057;BME280;48016;50.284;18.860;2023-07-31T11:57:09;97785.92;;;25.88;39.83
62057;BME280;48016;50.284;18.860;2023-07-31T11:59:37;97784.66;;;25.81;39.95
62057;BME280;48016;50.284;18.860;2023-07-31T12:02:04;97785.98;;;25.79;40.19
62057;BME280;48016;50.284;18.860;2023-07-31T12:04:31;97784.80;;;25.76;40.31
62057;BME280;48016;50.284;18.860;2023-07-31T12:06:59;97784.86;;;25.70;40.79
62057;BME280;48016;50.284;18.860;2023-07-31T12:09:26;97782.17;;;25.70;41.31
62057;BME280;48016;50.284;18.860;2023-07-31T12:11:52;97775.84;;;25.70;41.01
62057;BME280;48016;50.284;18.860;2023-07-31T12:14:20;97772.27;;;25.74;41.64
62057;BME280;48016;50.284;18.860;2023-07-31T12:16:53;97768.92;;;25.77;41.57
62057;BME280;48016;50.284;18.860;2023-07-31T12:19:20;97761.23;;;25.76;41.77
62057;BME280;48016;50.284;18.860;2023-07-31T12:21:47;97759.79;;;25.75;41.55
62057;BME280;48016;50.284;18.860;2023-07-31T12:24:13;97756.02;;;25.76;41.57
62057;BME280;48016;50.284;18.860;2023-07-31T12:26:42;97752.80;;;25.78;41.64
62057;BME280;48016;50.284;18.860;2023-07-31T12:29:11;97756.66;;;25.81;41.03
62057;BME280;48016;50.284;18.860;2023-07-31T12:31:41;97746.10;;;25.87;40.99
62057;BME280;48016;50.284;18.860;2023-07-31T12:34:18;97742.80;;;25.88;40.95
62057;BME280;48016;50.284;18.860;2023-07-31T12:36:45;97739.53;;;25.86;40.66
62057;BME280;48016;50.284;18.860;2023-07-31T12:39:12;97736.69;;;25.86;40.29
62057;BME280;48016;50.284;18.860;2023-07-31T12:41:39;97729.30;;;25.95;40.22
62057;BME280;48016;50.284;18.860;2023-07-31T12:44:05;97731.27;;;26.04;40.35
62057;BME280;48016;50.284;18.860;2023-07-31T12:46:32;97733.89;;;26.04;40.43
62057;BME280;48016;50.284;18.860;2023-07-31T12:48:58;97733.80;;;26.08;40.62
62057;BME280;48016;50.284;18.860;2023-07-31T12:51:25;97729.03;;;26.17;40.30
62057;BME280;48016;50.284;18.860;2023-07-31T12:53:51;97725.26;;;26.13;40.34
62057;BME280;48016;50.284;18.860;2023-07-31T12:56:18;97725.57;;;26.08;39.92